sensor_id;sensor_type;location;lat;lon;timestamp;temperature;humidity
41694;DHT22;27377;50.666;9.150;2023-02-15T00:02:21;1.20;99.90
41694;DHT22;27377;50.666;9.150;2023-02-15T00:04:47;1.20;99.90
41694;DHT22;27377;50.666;9.150;2023-02-15T00:07:18;1.20;99.90
41694;DHT22;27377;50.666;9.150;2023-02-15T00:09:47;1.20;99.90
41694;DHT22;27377;50.666;9.150;2023-02-15T00:12:13;1.10;99.90
41694;DHT22;27377;50.666;9.150;2023-02-15T00:14:39;1.20;99.90
41694;DHT22;27377;50.666;9.150;2023-02-15T00:17:05;1.10;99.90
41694;DHT22;27377;50.666;9.150;2023-02-15T00:19:30;1.10;99.90
41694;DHT22;27377;50.666;9.150;2023-02-15T00:21:56;1.10;99.90
41694;DHT22;27377;50.666;9.150;2023-02-15T00:24:22;1.10;99.90
41694;DHT22;27377;50.666;9.150;2023-02-15T00:26:47;1.10;99.90
41694;DHT22;27377;50.666;9.150;2023-02-15T00:29:15;1.10;99.90
41694;DHT22;27377;50.666;9.150;2023-02-15T00:31:40;1.10;99.90
41694;DHT22;27377;50.666;9.150;2023-02-15T00:34:13;1.10;99.90
41694;DHT22;27377;50.666;9.150;2023-02-15T00:36:39;1.10;99.90
41694;DHT22;27377;50.666;9.150;2023-02-15T00:39:05;1.10;99.90
41694;DHT22;27377;50.666;9.150;2023-02-15T00:41:32;1.10;99.90
41694;DHT22;27377;50.666;9.150;2023-02-15T00:43:58;1.10;99.90
41694;DHT22;27377;50.666;9.150;2023-02-15T00:46:23;1.10;99.90
41694;DHT22;27377;50.666;9.150;2023-02-15T00:48:49;1.00;99.90
41694;DHT22;27377;50.666;9.150;2023-02-15T00:51:16;1.00;99.90
41694;DHT22;27377;50.666;9.150;2023-02-15T00:53:42;1.00;99.90
41694;DHT22;27377;50.666;9.150;2023-02-15T00:56:09;1.00;99.90
41694;DHT22;27377;50.666;9.150;2023-02-15T00:58:35;1.00;99.90
41694;DHT22;27377;50.666;9.150;2023-02-15T01:01:06;1.00;99.90
41694;DHT22;27377;50.666;9.150;2023-02-15T01:03:33;1.00;99.90
41694;DHT22;27377;50.666;9.150;2023-02-15T01:05:59;1.00;99.90
41694;DHT22;27377;50.666;9.150;2023-02-15T01:08:25;1.00;99.90
41694;DHT22;27377;50.666;9.150;2023-02-15T01:10:50;1.00;99.90
41694;DHT22;27377;50.666;9.150;2023-02-15T01:13:17;1.00;99.90
41694;DHT22;27377;50.666;9.150;2023-02-15T01:15:43;0.90;99.90
41694;DHT22;27377;50.666;9.150;2023-02-15T01:18:10;0.90;99.90
41694;DHT22;27377;50.666;9.150;2023-02-15T01:20:37;0.90;99.90
41694;DHT22;27377;50.666;9.150;2023-02-15T01:23:05;0.90;99.90
41694;DHT22;27377;50.666;9.150;2023-02-15T01:25:33;0.90;99.90
41694;DHT22;27377;50.666;9.150;2023-02-15T01:27:59;0.90;99.90
41694;DHT22;27377;50.666;9.150;2023-02-15T01:30:25;0.90;99.90
41694;DHT22;27377;50.666;9.150;2023-02-15T01:32:50;0.80;99.90
41694;DHT22;27377;50.666;9.150;2023-02-15T01:35:16;0.80;99.90
41694;DHT22;27377;50.666;9.150;2023-02-15T01:37:42;0.80;99.90
41694;DHT22;27377;50.666;9.150;2023-02-15T01:40:14;0.80;99.90
41694;DHT22;27377;50.666;9.150;2023-02-15T01:42:40;0.80;99.90
41694;DHT22;27377;50.666;9.150;2023-02-15T01:45:21;0.80;99.90
41694;DHT22;27377;50.666;9.150;2023-02-15T01:50:18;0.80;99.90
41694;DHT22;27377;50.666;9.150;2023-02-15T01:52:52;0.80;99.90
41694;DHT22;27377;50.666;9.150;2023-02-15T01:55:22;0.80;99.90
41694;DHT22;27377;50.666;9.150;2023-02-15T01:57:49;0.80;99.90
41694;DHT22;27377;50.666;9.150;2023-02-15T02:00:15;0.80;99.90
41694;DHT22;27377;50.666;9.150;2023-02-15T02:02:43;0.80;99.90
41694;DHT22;27377;50.666;9.150;2023-02-15T02:05:10;0.70;99.90
41694;DHT22;27377;50.666;9.150;2023-02-15T02:07:42;0.70;99.90
41694;DHT22;27377;50.666;9.150;2023-02-15T02:10:12;0.70;99.90
41694;DHT22;27377;50.666;9.150;2023-02-15T02:12:40;0.60;99.90
41694;DHT22;27377;50.666;9.150;2023-02-15T02:15:07;0.70;99.90
41694;DHT22;27377;50.666;9.150;2023-02-15T02:17:56;0.70;99.90
41694;DHT22;27377;50.666;9.150;2023-02-15T02:23:23;0.60;99.90
41694;DHT22;27377;50.666;9.150;2023-02-15T02:34:29;0.70;99.90
41694;DHT22;27377;50.666;9.150;2023-02-15T02:37:23;0.70;99.90
41694;DHT22;27377;50.666;9.150;2023-02-15T02:40:11;0.70;99.90
41694;DHT22;27377;50.666;9.150;2023-02-15T02:42:41;0.60;99.90
41694;DHT22;27377;50.666;9.150;2023-02-15T02:47:59;0.50;99.90
41694;DHT22;27377;50.666;9.150;2023-02-15T02:50:29;0.60;99.90
41694;DHT22;27377;50.666;9.150;2023-02-15T02:52:57;0.60;99.90
41694;DHT22;27377;50.666;9.150;2023-02-15T02:55:34;0.50;99.90
41694;DHT22;27377;50.666;9.150;2023-02-15T03:00:53;0.50;99.90
41694;DHT22;27377;50.666;9.150;2023-02-15T03:03:28;0.50;99.90
41694;DHT22;27377;50.666;9.150;2023-02-15T03:05:59;0.40;99.90
41694;DHT22;27377;50.666;9.150;2023-02-15T03:08:31;0.40;99.90
41694;DHT22;27377;50.666;9.150;2023-02-15T03:11:00;0.40;99.90
41694;DHT22;27377;50.666;9.150;2023-02-15T03:13:27;0.40;99.90
41694;DHT22;27377;50.666;9.150;2023-02-15T03:15:53;0.40;99.90
41694;DHT22;27377;50.666;9.150;2023-02-15T03:18:45;0.30;99.90
41694;DHT22;27377;50.666;9.150;2023-02-15T03:21:20;0.40;99.90
41694;DHT22;27377;50.666;9.150;2023-02-15T03:23:52;0.30;99.90
41694;DHT22;27377;50.666;9.150;2023-02-15T03:26:20;0.30;99.90
41694;DHT22;27377;50.666;9.150;2023-02-15T03:28:49;0.40;99.90
41694;DHT22;27377;50.666;9.150;2023-02-15T03:31:18;0.40;99.90
41694;DHT22;27377;50.666;9.150;2023-02-15T03:33:54;0.40;99.90
41694;DHT22;27377;50.666;9.150;2023-02-15T03:36:28;0.40;99.90
41694;DHT22;27377;50.666;9.150;2023-02-15T03:39:13;0.40;99.90
41694;DHT22;27377;50.666;9.150;2023-02-15T03:41:48;0.30;99.90
41694;DHT22;27377;50.666;9.150;2023-02-15T03:44:19;0.40;99.90
41694;DHT22;27377;50.666;9.150;2023-02-15T03:47:04;0.30;99.90
41694;DHT22;27377;50.666;9.150;2023-02-15T03:52:21;0.20;99.90
41694;DHT22;27377;50.666;9.150;2023-02-15T03:54:50;0.20;99.90
41694;DHT22;27377;50.666;9.150;2023-02-15T04:00:25;0.20;99.90
41694;DHT22;27377;50.666;9.150;2023-02-15T04:03:22;0.30;99.90
41694;DHT22;27377;50.666;9.150;2023-02-15T04:05:48;0.30;99.90
41694;DHT22;27377;50.666;9.150;2023-02-15T04:08:13;0.30;99.90
41694;DHT22;27377;50.666;9.150;2023-02-15T04:10:39;0.30;99.90
41694;DHT22;27377;50.666;9.150;2023-02-15T04:13:29;0.30;99.90
41694;DHT22;27377;50.666;9.150;2023-02-15T04:15:55;0.30;99.90
41694;DHT22;27377;50.666;9.150;2023-02-15T04:18:31;0.40;99.90
41694;DHT22;27377;50.666;9.150;2023-02-15T04:21:15;0.40;99.90
41694;DHT22;27377;50.666;9.150;2023-02-15T04:24:00;0.50;99.90
41694;DHT22;27377;50.666;9.150;2023-02-15T04:26:44;0.50;99.90
41694;DHT22;27377;50.666;9.150;2023-02-15T04:29:09;0.50;99.90
41694;DHT22;27377;50.666;9.150;2023-02-15T04:31:35;0.40;99.90
41694;DHT22;27377;50.666;9.150;2023-02-15T04:34:00;0.50;99.90
41694;DHT22;27377;50.666;9.150;2023-02-15T04:36:26;0.50;99.90
41694;DHT22;27377;50.666;9.150;2023-02-15T04:38:51;0.50;99.90
41694;DHT22;27377;50.666;9.150;2023-02-15T04:41:17;0.50;99.90
41694;DHT22;27377;50.666;9.150;2023-02-15T04:43:42;0.50;99.90
41694;DHT22;27377;50.666;9.150;2023-02-15T04:46:08;0.60;99.90
41694;DHT22;27377;50.666;9.150;2023-02-15T04:48:33;0.50;99.90
41694;DHT22;27377;50.666;9.150;2023-02-15T04:50:59;0.40;99.90
41694;DHT22;27377;50.666;9.150;2023-02-15T04:53:25;0.40;99.90
41694;DHT22;27377;50.666;9.150;2023-02-15T04:55:50;0.40;99.90
41694;DHT22;27377;50.666;9.150;2023-02-15T04:58:16;0.40;99.90
41694;DHT22;27377;50.666;9.150;2023-02-15T05:00:41;0.30;99.90
41694;DHT22;27377;50.666;9.150;2023-02-15T05:03:07;0.40;99.90
41694;DHT22;27377;50.666;9.150;2023-02-15T05:05:32;0.40;99.90
41694;DHT22;27377;50.666;9.150;2023-02-15T05:07:58;0.40;99.90
41694;DHT22;27377;50.666;9.150;2023-02-15T05:10:23;0.40;99.90
41694;DHT22;27377;50.666;9.150;2023-02-15T05:12:49;0.40;99.90
41694;DHT22;27377;50.666;9.150;2023-02-15T05:15:14;0.40;99.90
41694;DHT22;27377;50.666;9.150;2023-02-15T05:17:40;0.40;99.90
41694;DHT22;27377;50.666;9.150;2023-02-15T05:20:06;0.40;99.90
41694;DHT22;27377;50.666;9.150;2023-02-15T05:22:31;0.30;99.90
41694;DHT22;27377;50.666;9.150;2023-02-15T05:24:57;0.30;99.90
41694;DHT22;27377;50.666;9.150;2023-02-15T05:27:41;0.30;99.90
41694;DHT22;27377;50.666;9.150;2023-02-15T05:30:26;0.40;99.90
41694;DHT22;27377;50.666;9.150;2023-02-15T05:32:51;0.40;99.90
41694;DHT22;27377;50.666;9.150;2023-02-15T05:35:17;0.40;99.90
41694;DHT22;27377;50.666;9.150;2023-02-15T05:37:42;0.40;99.90
41694;DHT22;27377;50.666;9.150;2023-02-15T05:40:08;0.30;99.90
41694;DHT22;27377;50.666;9.150;2023-02-15T05:42:34;0.30;99.90
41694;DHT22;27377;50.666;9.150;2023-02-15T05:45:00;0.40;99.90
41694;DHT22;27377;50.666;9.150;2023-02-15T05:47:25;0.30;99.90
41694;DHT22;27377;50.666;9.150;2023-02-15T05:49:51;0.30;99.90
41694;DHT22;27377;50.666;9.150;2023-02-15T05:52:16;0.20;99.90
41694;DHT22;27377;50.666;9.150;2023-02-15T05:54:42;0.20;99.90
41694;DHT22;27377;50.666;9.150;2023-02-15T05:57:08;0.20;99.90
41694;DHT22;27377;50.666;9.150;2023-02-15T05:59:34;0.20;99.90
41694;DHT22;27377;50.666;9.150;2023-02-15T06:01:59;0.30;99.90
41694;DHT22;27377;50.666;9.150;2023-02-15T06:04:25;0.30;99.90
41694;DHT22;27377;50.666;9.150;2023-02-15T06:06:51;0.20;99.90
41694;DHT22;27377;50.666;9.150;2023-02-15T06:09:16;0.30;99.90
41694;DHT22;27377;50.666;9.150;2023-02-15T06:11:44;0.30;99.90
41694;DHT22;27377;50.666;9.150;2023-02-15T06:14:10;0.30;99.90
41694;DHT22;27377;50.666;9.150;2023-02-15T06:16:36;0.30;99.90
41694;DHT22;27377;50.666;9.150;2023-02-15T06:19:02;0.40;99.90
41694;DHT22;27377;50.666;9.150;2023-02-15T06:21:29;0.40;99.90
41694;DHT22;27377;50.666;9.150;2023-02-15T06:23:57;0.40;99.90
41694;DHT22;27377;50.666;9.150;2023-02-15T06:26:23;0.50;99.90
41694;DHT22;27377;50.666;9.150;2023-02-15T06:28:48;0.40;99.90
41694;DHT22;27377;50.666;9.150;2023-02-15T06:31:14;0.50;99.90
41694;DHT22;27377;50.666;9.150;2023-02-15T06:33:40;0.50;99.90
41694;DHT22;27377;50.666;9.150;2023-02-15T06:36:06;0.50;99.90
41694;DHT22;27377;50.666;9.150;2023-02-15T06:38:32;0.50;99.90
41694;DHT22;27377;50.666;9.150;2023-02-15T06:40:57;0.50;99.90
41694;DHT22;27377;50.666;9.150;2023-02-15T06:43:23;0.50;99.90
41694;DHT22;27377;50.666;9.150;2023-02-15T06:45:48;0.50;99.90
41694;DHT22;27377;50.666;9.150;2023-02-15T06:48:14;0.40;99.90
41694;DHT22;27377;50.666;9.150;2023-02-15T06:50:45;0.40;99.90
41694;DHT22;27377;50.666;9.150;2023-02-15T06:53:11;0.40;99.90
41694;DHT22;27377;50.666;9.150;2023-02-15T06:55:37;0.40;99.90
41694;DHT22;27377;50.666;9.150;2023-02-15T06:58:02;0.50;99.90
41694;DHT22;27377;50.666;9.150;2023-02-15T07:00:28;0.50;99.90
41694;DHT22;27377;50.666;9.150;2023-02-15T07:02:54;0.50;99.90
41694;DHT22;27377;50.666;9.150;2023-02-15T07:05:22;0.50;99.90
41694;DHT22;27377;50.666;9.150;2023-02-15T07:07:47;0.50;99.90
41694;DHT22;27377;50.666;9.150;2023-02-15T07:10:13;0.50;99.90
41694;DHT22;27377;50.666;9.150;2023-02-15T07:12:38;0.40;99.90
41694;DHT22;27377;50.666;9.150;2023-02-15T07:15:08;0.50;99.90
41694;DHT22;27377;50.666;9.150;2023-02-15T07:17:35;0.50;99.90
41694;DHT22;27377;50.666;9.150;2023-02-15T07:20:01;0.50;99.90
41694;DHT22;27377;50.666;9.150;2023-02-15T07:22:27;0.50;99.90
41694;DHT22;27377;50.666;9.150;2023-02-15T07:24:53;0.40;99.90
41694;DHT22;27377;50.666;9.150;2023-02-15T07:27:20;0.50;99.90
41694;DHT22;27377;50.666;9.150;2023-02-15T07:29:46;0.50;99.90
41694;DHT22;27377;50.666;9.150;2023-02-15T07:32:12;0.50;99.90
41694;DHT22;27377;50.666;9.150;2023-02-15T07:34:38;0.50;99.90
41694;DHT22;27377;50.666;9.150;2023-02-15T07:37:05;0.50;99.90
41694;DHT22;27377;50.666;9.150;2023-02-15T07:39:30;0.50;99.90
41694;DHT22;27377;50.666;9.150;2023-02-15T07:41:56;0.50;99.90
41694;DHT22;27377;50.666;9.150;2023-02-15T07:44:22;0.50;99.90
41694;DHT22;27377;50.666;9.150;2023-02-15T07:46:47;0.50;99.90
41694;DHT22;27377;50.666;9.150;2023-02-15T07:49:13;0.50;99.90
41694;DHT22;27377;50.666;9.150;2023-02-15T07:51:39;0.50;99.90
41694;DHT22;27377;50.666;9.150;2023-02-15T07:54:06;0.60;99.90
41694;DHT22;27377;50.666;9.150;2023-02-15T07:56:32;0.60;99.90
41694;DHT22;27377;50.666;9.150;2023-02-15T07:58:58;0.60;99.90
41694;DHT22;27377;50.666;9.150;2023-02-15T08:01:36;0.60;99.90
41694;DHT22;27377;50.666;9.150;2023-02-15T08:04:03;0.70;99.90
41694;DHT22;27377;50.666;9.150;2023-02-15T08:06:32;0.70;99.90
41694;DHT22;27377;50.666;9.150;2023-02-15T08:08:57;0.70;99.90
41694;DHT22;27377;50.666;9.150;2023-02-15T08:11:25;0.70;99.90
41694;DHT22;27377;50.666;9.150;2023-02-15T08:16:39;0.70;99.90
41694;DHT22;27377;50.666;9.150;2023-02-15T08:19:11;0.80;99.90
41694;DHT22;27377;50.666;9.150;2023-02-15T08:21:39;0.80;99.90
41694;DHT22;27377;50.666;9.150;2023-02-15T08:24:06;0.80;99.90
41694;DHT22;27377;50.666;9.150;2023-02-15T08:26:34;0.80;99.90
41694;DHT22;27377;50.666;9.150;2023-02-15T08:29:00;0.80;99.90
41694;DHT22;27377;50.666;9.150;2023-02-15T08:31:26;0.80;99.90
41694;DHT22;27377;50.666;9.150;2023-02-15T08:33:54;0.80;99.90
41694;DHT22;27377;50.666;9.150;2023-02-15T08:36:27;0.80;99.90
41694;DHT22;27377;50.666;9.150;2023-02-15T08:38:54;0.80;99.90
41694;DHT22;27377;50.666;9.150;2023-02-15T08:41:22;0.80;99.90
41694;DHT22;27377;50.666;9.150;2023-02-15T08:43:52;0.80;99.90
41694;DHT22;27377;50.666;9.150;2023-02-15T08:46:18;0.80;99.90
41694;DHT22;27377;50.666;9.150;2023-02-15T08:48:44;0.80;99.90
41694;DHT22;27377;50.666;9.150;2023-02-15T08:51:19;0.90;99.90
41694;DHT22;27377;50.666;9.150;2023-02-15T08:53:47;0.90;99.90
41694;DHT22;27377;50.666;9.150;2023-02-15T08:56:17;0.90;99.90
41694;DHT22;27377;50.666;9.150;2023-02-15T08:58:43;0.90;99.90
41694;DHT22;27377;50.666;9.150;2023-02-15T09:01:18;0.90;99.90
41694;DHT22;27377;50.666;9.150;2023-02-15T09:03:46;1.00;99.90
41694;DHT22;27377;50.666;9.150;2023-02-15T09:06:12;0.90;99.90
41694;DHT22;27377;50.666;9.150;2023-02-15T09:08:39;0.90;99.90
41694;DHT22;27377;50.666;9.150;2023-02-15T09:13:34;1.00;99.90
41694;DHT22;27377;50.666;9.150;2023-02-15T09:16:05;1.00;99.90
41694;DHT22;27377;50.666;9.150;2023-02-15T09:18:32;1.00;99.90
41694;DHT22;27377;50.666;9.150;2023-02-15T09:21:05;1.00;99.90
41694;DHT22;27377;50.666;9.150;2023-02-15T09:23:31;1.00;99.90
41694;DHT22;27377;50.666;9.150;2023-02-15T09:25:56;1.10;99.90
41694;DHT22;27377;50.666;9.150;2023-02-15T09:28:22;1.10;99.90
41694;DHT22;27377;50.666;9.150;2023-02-15T09:30:47;1.10;99.90
41694;DHT22;27377;50.666;9.150;2023-02-15T09:33:13;1.10;99.90
41694;DHT22;27377;50.666;9.150;2023-02-15T09:35:38;1.10;99.90
41694;DHT22;27377;50.666;9.150;2023-02-15T09:38:04;1.10;99.90
41694;DHT22;27377;50.666;9.150;2023-02-15T09:40:35;1.20;99.90
41694;DHT22;27377;50.666;9.150;2023-02-15T09:43:09;1.10;99.90
41694;DHT22;27377;50.666;9.150;2023-02-15T09:46:11;1.20;99.90
41694;DHT22;27377;50.666;9.150;2023-02-15T09:48:48;1.20;99.90
41694;DHT22;27377;50.666;9.150;2023-02-15T09:51:23;1.20;99.90
41694;DHT22;27377;50.666;9.150;2023-02-15T09:54:09;1.20;99.90
41694;DHT22;27377;50.666;9.150;2023-02-15T09:56:48;1.30;99.90
41694;DHT22;27377;50.666;9.150;2023-02-15T09:59:35;1.30;99.90
41694;DHT22;27377;50.666;9.150;2023-02-15T10:04:53;1.30;99.90
41694;DHT22;27377;50.666;9.150;2023-02-15T10:10:23;1.40;99.90
41694;DHT22;27377;50.666;9.150;2023-02-15T10:15:28;1.40;99.90
41694;DHT22;27377;50.666;9.150;2023-02-15T10:26:43;1.40;99.90
41694;DHT22;27377;50.666;9.150;2023-02-15T10:29:18;1.40;99.90
41694;DHT22;27377;50.666;9.150;2023-02-15T10:31:54;1.40;99.90
41694;DHT22;27377;50.666;9.150;2023-02-15T10:34:32;1.40;99.90
41694;DHT22;27377;50.666;9.150;2023-02-15T10:37:25;1.50;99.90
41694;DHT22;27377;50.666;9.150;2023-02-15T10:46:23;1.60;99.90
41694;DHT22;27377;50.666;9.150;2023-02-15T10:59:50;1.70;99.90
41694;DHT22;27377;50.666;9.150;2023-02-15T11:05:00;1.70;99.90
41694;DHT22;27377;50.666;9.150;2023-02-15T11:07:48;1.80;99.90
41694;DHT22;27377;50.666;9.150;2023-02-15T11:10:39;1.80;99.90
41694;DHT22;27377;50.666;9.150;2023-02-15T11:13:16;1.80;99.90
41694;DHT22;27377;50.666;9.150;2023-02-15T11:15:52;1.80;99.90
41694;DHT22;27377;50.666;9.150;2023-02-15T11:18:31;1.80;99.90
41694;DHT22;27377;50.666;9.150;2023-02-15T11:21:09;1.90;99.90
41694;DHT22;27377;50.666;9.150;2023-02-15T11:23:40;1.90;99.90
41694;DHT22;27377;50.666;9.150;2023-02-15T11:26:25;1.90;99.90
41694;DHT22;27377;50.666;9.150;2023-02-15T11:31:46;1.90;99.90
41694;DHT22;27377;50.666;9.150;2023-02-15T11:37:12;1.90;99.90
41694;DHT22;27377;50.666;9.150;2023-02-15T11:39:38;1.90;99.90
41694;DHT22;27377;50.666;9.150;2023-02-15T11:42:13;1.90;99.90
41694;DHT22;27377;50.666;9.150;2023-02-15T11:47:25;2.00;99.90
41694;DHT22;27377;50.666;9.150;2023-02-15T11:49:51;2.00;99.90
41694;DHT22;27377;50.666;9.150;2023-02-15T11:52:17;2.00;99.90
41694;DHT22;27377;50.666;9.150;2023-02-15T11:54:49;2.10;99.90
41694;DHT22;27377;50.666;9.150;2023-02-15T12:02:31;2.10;99.90
41694;DHT22;27377;50.666;9.150;2023-02-15T12:05:09;2.10;99.90
41694;DHT22;27377;50.666;9.150;2023-02-15T12:07:40;2.10;99.90
41694;DHT22;27377;50.666;9.150;2023-02-15T12:10:26;2.10;99.90
41694;DHT22;27377;50.666;9.150;2023-02-15T12:13:17;2.10;99.90
41694;DHT22;27377;50.666;9.150;2023-02-15T12:15:46;2.10;99.90
41694;DHT22;27377;50.666;9.150;2023-02-15T12:18:32;2.10;99.90
41694;DHT22;27377;50.666;9.150;2023-02-15T12:21:07;2.20;99.90
41694;DHT22;27377;50.666;9.150;2023-02-15T12:23:39;2.20;99.90
41694;DHT22;27377;50.666;9.150;2023-02-15T12:26:06;2.20;99.90
41694;DHT22;27377;50.666;9.150;2023-02-15T12:28:33;2.20;99.90
41694;DHT22;27377;50.666;9.150;2023-02-15T12:31:00;2.20;99.90
41694;DHT22;27377;50.666;9.150;2023-02-15T12:33:34;2.30;99.90
41694;DHT22;27377;50.666;9.150;2023-02-15T12:36:15;2.30;99.90
41694;DHT22;27377;50.666;9.150;2023-02-15T12:38:42;2.30;99.90
41694;DHT22;27377;50.666;9.150;2023-02-15T12:41:26;2.30;99.90
41694;DHT22;27377;50.666;9.150;2023-02-15T12:44:09;2.40;99.90
41694;DHT22;27377;50.666;9.150;2023-02-15T12:46:40;2.40;99.90
41694;DHT22;27377;50.666;9.150;2023-02-15T12:49:19;2.40;99.90
41694;DHT22;27377;50.666;9.150;2023-02-15T12:51:50;2.40;99.90
41694;DHT22;27377;50.666;9.150;2023-02-15T12:54:26;2.50;99.90
41694;DHT22;27377;50.666;9.150;2023-02-15T12:56:53;2.50;99.90
41694;DHT22;27377;50.666;9.150;2023-02-15T12:59:20;2.50;99.90
41694;DHT22;27377;50.666;9.150;2023-02-15T13:01:46;2.50;99.90
41694;DHT22;27377;50.666;9.150;2023-02-15T13:04:26;2.60;99.90
41694;DHT22;27377;50.666;9.150;2023-02-15T13:06:55;2.60;99.90
41694;DHT22;27377;50.666;9.150;2023-02-15T13:11:57;2.70;99.90
41694;DHT22;27377;50.666;9.150;2023-02-15T13:14:32;2.70;99.90
41694;DHT22;27377;50.666;9.150;2023-02-15T13:17:00;2.70;99.90
41694;DHT22;27377;50.666;9.150;2023-02-15T13:19:43;2.80;99.90
41694;DHT22;27377;50.666;9.150;2023-02-15T13:22:16;2.80;99.90
41694;DHT22;27377;50.666;9.150;2023-02-15T13:24:50;2.80;99.90
41694;DHT22;27377;50.666;9.150;2023-02-15T13:27:19;2.80;99.90
41694;DHT22;27377;50.666;9.150;2023-02-15T13:29:54;2.80;99.90
41694;DHT22;27377;50.666;9.150;2023-02-15T13:32:36;2.80;99.90
41694;DHT22;27377;50.666;9.150;2023-02-15T13:35:05;2.80;99.90
41694;DHT22;27377;50.666;9.150;2023-02-15T13:37:50;2.80;99.90
41694;DHT22;27377;50.666;9.150;2023-02-15T13:40:24;2.80;99.90
41694;DHT22;27377;50.666;9.150;2023-02-15T13:43:16;2.80;99.90
41694;DHT22;27377;50.666;9.150;2023-02-15T13:49:16;2.90;99.90
41694;DHT22;27377;50.666;9.150;2023-02-15T13:52:02;2.90;99.90
41694;DHT22;27377;50.666;9.150;2023-02-15T14:00:48;2.90;99.90
41694;DHT22;27377;50.666;9.150;2023-02-15T14:03:48;2.90;99.90
41694;DHT22;27377;50.666;9.150;2023-02-15T14:20:26;3.00;99.90
41694;DHT22;27377;50.666;9.150;2023-02-15T14:31:33;3.20;99.90
41694;DHT22;27377;50.666;9.150;2023-02-15T14:34:00;3.10;99.90
41694;DHT22;27377;50.666;9.150;2023-02-15T14:36:27;3.20;99.90
41694;DHT22;27377;50.666;9.150;2023-02-15T14:39:29;3.20;99.90
41694;DHT22;27377;50.666;9.150;2023-02-15T14:42:30;3.30;99.90
41694;DHT22;27377;50.666;9.150;2023-02-15T14:45:17;3.20;99.90
41694;DHT22;27377;50.666;9.150;2023-02-15T14:48:05;3.30;99.90
41694;DHT22;27377;50.666;9.150;2023-02-15T14:50:41;3.30;99.90
41694;DHT22;27377;50.666;9.150;2023-02-15T14:53:25;3.20;99.90
41694;DHT22;27377;50.666;9.150;2023-02-15T15:01:15;3.30;99.90
41694;DHT22;27377;50.666;9.150;2023-02-15T15:03:51;3.30;99.90
41694;DHT22;27377;50.666;9.150;2023-02-15T15:06:27;3.40;99.90
41694;DHT22;27377;50.666;9.150;2023-02-15T15:09:18;3.40;99.90
41694;DHT22;27377;50.666;9.150;2023-02-15T15:11:52;3.40;99.90
41694;DHT22;27377;50.666;9.150;2023-02-15T15:17:01;3.40;99.90
41694;DHT22;27377;50.666;9.150;2023-02-15T15:22:27;3.50;99.90
41694;DHT22;27377;50.666;9.150;2023-02-15T15:25:08;3.50;99.90
41694;DHT22;27377;50.666;9.150;2023-02-15T15:27:42;3.50;99.90
41694;DHT22;27377;50.666;9.150;2023-02-15T15:35:55;3.50;99.90
41694;DHT22;27377;50.666;9.150;2023-02-15T15:41:18;3.50;99.90
41694;DHT22;27377;50.666;9.150;2023-02-15T15:47:19;3.40;99.90
41694;DHT22;27377;50.666;9.150;2023-02-15T15:49:50;3.40;99.90
41694;DHT22;27377;50.666;9.150;2023-02-15T15:52:21;3.40;99.90
41694;DHT22;27377;50.666;9.150;2023-02-15T15:54:51;3.30;99.90
41694;DHT22;27377;50.666;9.150;2023-02-15T15:57:35;3.30;99.90
41694;DHT22;27377;50.666;9.150;2023-02-15T16:00:04;3.30;99.90
41694;DHT22;27377;50.666;9.150;2023-02-15T16:02:53;3.30;99.90
41694;DHT22;27377;50.666;9.150;2023-02-15T16:05:19;3.30;99.90
41694;DHT22;27377;50.666;9.150;2023-02-15T16:07:45;3.20;99.90
41694;DHT22;27377;50.666;9.150;2023-02-15T16:10:37;3.20;99.90
41694;DHT22;27377;50.666;9.150;2023-02-15T16:13:05;3.20;99.90
41694;DHT22;27377;50.666;9.150;2023-02-15T16:15:46;3.10;99.90
41694;DHT22;27377;50.666;9.150;2023-02-15T16:18:16;3.00;99.90
41694;DHT22;27377;50.666;9.150;2023-02-15T16:20:50;3.00;99.90
41694;DHT22;27377;50.666;9.150;2023-02-15T16:28:58;2.90;99.90
41694;DHT22;27377;50.666;9.150;2023-02-15T16:31:24;2.90;99.90
41694;DHT22;27377;50.666;9.150;2023-02-15T16:33:52;2.90;99.90
41694;DHT22;27377;50.666;9.150;2023-02-15T16:36:27;2.80;99.90
41694;DHT22;27377;50.666;9.150;2023-02-15T16:41:29;2.80;99.90
41694;DHT22;27377;50.666;9.150;2023-02-15T16:43:57;2.80;99.90
41694;DHT22;27377;50.666;9.150;2023-02-15T16:46:30;2.80;99.90
41694;DHT22;27377;50.666;9.150;2023-02-15T16:49:03;2.70;99.90
41694;DHT22;27377;50.666;9.150;2023-02-15T16:51:32;2.70;99.90
41694;DHT22;27377;50.666;9.150;2023-02-15T16:54:22;2.70;99.90
41694;DHT22;27377;50.666;9.150;2023-02-15T16:56:48;2.70;99.90
41694;DHT22;27377;50.666;9.150;2023-02-15T16:59:39;2.70;99.90
41694;DHT22;27377;50.666;9.150;2023-02-15T17:02:15;2.70;99.90
41694;DHT22;27377;50.666;9.150;2023-02-15T17:04:41;2.70;99.90
41694;DHT22;27377;50.666;9.150;2023-02-15T17:07:19;2.60;99.90
41694;DHT22;27377;50.666;9.150;2023-02-15T17:09:53;2.60;99.90
41694;DHT22;27377;50.666;9.150;2023-02-15T17:12:51;2.60;99.90
41694;DHT22;27377;50.666;9.150;2023-02-15T17:15:37;2.60;99.90
41694;DHT22;27377;50.666;9.150;2023-02-15T17:18:08;2.70;99.90
41694;DHT22;27377;50.666;9.150;2023-02-15T17:20:37;2.60;99.90
41694;DHT22;27377;50.666;9.150;2023-02-15T17:23:04;2.60;99.90
41694;DHT22;27377;50.666;9.150;2023-02-15T17:25:37;2.60;99.90
41694;DHT22;27377;50.666;9.150;2023-02-15T17:28:04;2.60;99.90
41694;DHT22;27377;50.666;9.150;2023-02-15T17:30:33;2.60;99.90
41694;DHT22;27377;50.666;9.150;2023-02-15T17:33:01;2.60;99.90
41694;DHT22;27377;50.666;9.150;2023-02-15T17:35:29;2.60;99.90
41694;DHT22;27377;50.666;9.150;2023-02-15T17:38:15;2.50;99.90
41694;DHT22;27377;50.666;9.150;2023-02-15T17:40:42;2.50;99.90
41694;DHT22;27377;50.666;9.150;2023-02-15T17:43:07;2.50;99.90
41694;DHT22;27377;50.666;9.150;2023-02-15T17:45:36;2.50;99.90
41694;DHT22;27377;50.666;9.150;2023-02-15T17:48:05;2.50;99.90
41694;DHT22;27377;50.666;9.150;2023-02-15T17:50:31;2.50;99.90
41694;DHT22;27377;50.666;9.150;2023-02-15T17:52:59;2.50;99.90
41694;DHT22;27377;50.666;9.150;2023-02-15T17:55:26;2.50;99.90
41694;DHT22;27377;50.666;9.150;2023-02-15T17:58:14;2.50;99.90
41694;DHT22;27377;50.666;9.150;2023-02-15T18:00:45;2.40;99.90
41694;DHT22;27377;50.666;9.150;2023-02-15T18:03:41;2.40;99.90
41694;DHT22;27377;50.666;9.150;2023-02-15T18:06:26;2.40;99.90
41694;DHT22;27377;50.666;9.150;2023-02-15T18:09:17;2.40;99.90
41694;DHT22;27377;50.666;9.150;2023-02-15T18:12:04;2.40;99.90
41694;DHT22;27377;50.666;9.150;2023-02-15T18:14:38;2.40;99.90
41694;DHT22;27377;50.666;9.150;2023-02-15T18:17:04;2.30;99.90
41694;DHT22;27377;50.666;9.150;2023-02-15T18:19:29;2.40;99.90
41694;DHT22;27377;50.666;9.150;2023-02-15T18:21:55;2.30;99.90
41694;DHT22;27377;50.666;9.150;2023-02-15T18:24:24;2.30;99.90
41694;DHT22;27377;50.666;9.150;2023-02-15T18:26:51;2.30;99.90
41694;DHT22;27377;50.666;9.150;2023-02-15T18:29:17;2.30;99.90
41694;DHT22;27377;50.666;9.150;2023-02-15T18:31:44;2.30;99.90
41694;DHT22;27377;50.666;9.150;2023-02-15T18:34:27;2.30;99.90
41694;DHT22;27377;50.666;9.150;2023-02-15T18:36:54;2.40;99.90
41694;DHT22;27377;50.666;9.150;2023-02-15T18:41:54;2.40;99.90